Terminal Aerodrome Forecast
Issued by NWS

Home | Current Version | Previous Version | Text Only | Print | Product List | Glossary On
Versions: 1 2 3 4 5 6 7 8 9 10 11
008
FTUS45 KREV 300531
TAFMMH
TAF
KMMH 300531Z 3006/3106 27010G18KT P6SM SCT080 BKN180
     FM300900 24022G32KT P6SM VCSH BKN080 BKN120 WS020/30045KT
     FM301300 24024G40KT P6SM -SHRASN BKN050 BKN100
     FM301600 28037G55KT P6SM VCSH BKN080
     FM302100 30032G45KT P6SM SCT080=

USA.gov is the U.S. government's official web portal to all federal, state and local government web resources and services.